Terminal Aerodrome Forecast
Issued by NWS Duluth, MN

Home | Current Version | Previous Version | Text Only | Print | Product List | Glossary On
Versions: 1 2 3 4 5 6 7 8 9 10 11 12 13 14 15
000
FTUS43 KDLH 021100
TAFDLH
TAF
KDLH 021137Z 0212/0312 14006KT P6SM SCT070 SCT120 WS015/19040KT
     FM021400 16007KT P6SM BKN080
     FM021700 17012G18KT P6SM SCT100
     FM030100 14007KT P6SM SCT060 BKN150
     FM031000 19010KT P6SM VCTS SCT015CB BKN030=

USA.gov is the U.S. government's official web portal to all federal, state and local government web resources and services.